createdAt,value
2022-12-18T00:01:28.610Z,-3269.30
2022-12-18T00:03:56.513Z,-3269.30
2022-12-18T00:06:24.344Z,-3269.40
2022-12-18T00:08:51.973Z,-3269.40
2022-12-18T00:11:21.731Z,-3269.40
2022-12-18T00:13:48.792Z,-3269.50
2022-12-18T00:16:22.237Z,-3269.50
2022-12-18T00:18:50.723Z,-3269.60
2022-12-18T00:21:18.135Z,-3269.70
2022-12-18T00:23:46.230Z,-3269.80
2022-12-18T00:26:16.815Z,-3269.90
2022-12-18T00:28:44.572Z,-3270.00
2022-12-18T00:31:14.008Z,-3270.10
2022-12-18T00:33:41.657Z,-3270.10
2022-12-18T00:36:12.767Z,-3270.20
2022-12-18T00:38:40.599Z,-3270.20
2022-12-18T00:41:10.536Z,-3270.30
2022-12-18T00:43:39.262Z,-3270.20
2022-12-18T00:46:06.731Z,-3270.20
2022-12-18T00:48:34.001Z,-3270.00
2022-12-18T00:51:00.705Z,-3270.00
2022-12-18T00:53:27.460Z,-3270.00
2022-12-18T00:55:54.172Z,-3270.00
2022-12-18T00:58:20.959Z,-3269.90
2022-12-18T01:00:47.777Z,-3269.90
2022-12-18T01:03:15.243Z,-3270.10
2022-12-18T01:05:42.980Z,-3270.20
2022-12-18T01:08:10.247Z,-3270.20
2022-12-18T01:10:37.121Z,-3270.30
2022-12-18T01:13:03.938Z,-3270.40
2022-12-18T01:15:30.712Z,-3270.40
2022-12-18T01:17:57.815Z,-3270.30
2022-12-18T01:20:24.561Z,-3270.20
2022-12-18T01:22:51.296Z,-3270.10
2022-12-18T01:25:18.022Z,-3270.00
2022-12-18T01:27:44.761Z,-3270.20
2022-12-18T01:30:11.970Z,-3270.20
2022-12-18T01:32:38.737Z,-3270.30
2022-12-18T01:35:06.376Z,-3270.40
2022-12-18T01:37:33.326Z,-3270.30
2022-12-18T01:40:00.091Z,-3270.20
2022-12-18T01:42:26.897Z,-3270.20
2022-12-18T01:45:02.764Z,-3270.30
2022-12-18T01:47:53.283Z,-3270.20
2022-12-18T01:50:25.725Z,-3270.20
2022-12-18T01:53:00.160Z,-3270.20
2022-12-18T01:55:30.537Z,-3270.20
2022-12-18T01:58:00.192Z,-3270.10
2022-12-18T02:00:28.784Z,-3270.00
2022-12-18T02:02:55.657Z,-3270.10
2022-12-18T02:05:41.021Z,-3270.30
2022-12-18T02:08:39.743Z,-3270.40
2022-12-18T02:11:11.365Z,-3270.40
2022-12-18T02:13:41.415Z,-3270.30
2022-12-18T02:16:19.878Z,-3270.40
2022-12-18T02:18:51.288Z,-3270.40
2022-12-18T02:21:36.236Z,-3270.50
2022-12-18T02:24:15.043Z,-3270.50
2022-12-18T02:26:54.841Z,-3270.40
2022-12-18T02:29:30.578Z,-3270.40
2022-12-18T02:32:00.144Z,-3270.40
2022-12-18T02:34:32.320Z,-3270.40
2022-12-18T02:37:01.850Z,-3270.40
2022-12-18T02:39:31.633Z,-3270.50
2022-12-18T02:42:00.376Z,-3270.50
2022-12-18T02:44:27.323Z,-3270.40
2022-12-18T02:46:55.375Z,-3270.20
2022-12-18T02:49:30.739Z,-3270.20
2022-12-18T02:52:29.676Z,-3270.30
2022-12-18T02:55:02.520Z,-3270.30
2022-12-18T02:57:36.335Z,-3270.40
2022-12-18T03:00:11.314Z,-3270.40
2022-12-18T03:03:00.535Z,-3270.50
2022-12-18T03:05:57.512Z,-3270.50
2022-12-18T03:08:28.211Z,-3270.50
2022-12-18T03:11:04.564Z,-3270.50
2022-12-18T03:13:52.735Z,-3270.50
2022-12-18T03:16:26.873Z,-3270.50
2022-12-18T03:18:58.314Z,-3270.50
2022-12-18T03:21:32.949Z,-3270.60
2022-12-18T03:24:00.657Z,-3270.60
2022-12-18T03:26:28.804Z,-3270.60
2022-12-18T03:29:10.742Z,-3270.60
2022-12-18T03:31:40.571Z,-3270.60
2022-12-18T03:34:14.311Z,-3270.70
2022-12-18T03:36:41.427Z,-3270.70
2022-12-18T03:39:08.231Z,-3270.70
2022-12-18T03:41:39.449Z,-3270.80
2022-12-18T03:44:22.992Z,-3270.70
2022-12-18T03:46:55.767Z,-3270.80
2022-12-18T03:49:48.891Z,-3270.80
2022-12-18T03:52:24.938Z,-3270.90
2022-12-18T03:54:54.937Z,-3270.90
2022-12-18T03:57:25.704Z,-3270.90
2022-12-18T03:59:57.507Z,-3270.90
2022-12-18T04:02:25.916Z,-3270.80
2022-12-18T04:05:01.481Z,-3270.80
2022-12-18T04:07:28.987Z,-3270.80
2022-12-18T04:09:59.127Z,-3270.70
2022-12-18T04:12:29.619Z,-3270.70
2022-12-18T04:14:56.474Z,-3270.70
2022-12-18T04:17:23.519Z,-3270.70
2022-12-18T04:19:50.502Z,-3270.80
2022-12-18T04:22:17.463Z,-3270.80
2022-12-18T04:24:44.195Z,-3270.90
2022-12-18T04:27:10.913Z,-3270.90
2022-12-18T04:29:37.660Z,-3270.90
2022-12-18T04:32:04.892Z,-3270.90
2022-12-18T04:34:31.620Z,-3270.90
2022-12-18T04:36:58.384Z,-3270.90
2022-12-18T04:39:25.218Z,-3270.90
2022-12-18T04:41:52.484Z,-3270.90
2022-12-18T04:44:19.289Z,-3270.90
2022-12-18T04:46:46.119Z,-3270.80
2022-12-18T04:49:13.360Z,-3270.80
2022-12-18T04:51:40.271Z,-3270.80
2022-12-18T04:54:07.017Z,-3270.80
2022-12-18T04:56:33.779Z,-3270.80
2022-12-18T04:59:00.516Z,-3270.80
2022-12-18T05:01:34.102Z,-3270.80
2022-12-18T05:04:02.362Z,-3270.80
2022-12-18T05:06:29.363Z,-3270.80
2022-12-18T05:08:56.381Z,-3270.80
2022-12-18T05:11:23.212Z,-3270.90
2022-12-18T05:13:50.280Z,-3270.80
2022-12-18T05:16:17.291Z,-3270.90
2022-12-18T05:18:44.151Z,-3270.90
2022-12-18T05:21:10.897Z,-3270.90
2022-12-18T05:23:38.479Z,-3271.00
2022-12-18T05:26:06.737Z,-3271.00
2022-12-18T05:28:35.405Z,-3271.00
2022-12-18T05:31:05.936Z,-3271.00
2022-12-18T05:33:35.348Z,-3271.00
2022-12-18T05:36:03.571Z,-3271.00
2022-12-18T05:38:32.815Z,-3271.00
2022-12-18T05:40:59.593Z,-3271.00
2022-12-18T05:43:27.522Z,-3271.00
2022-12-18T05:45:54.996Z,-3271.10
2022-12-18T05:48:22.510Z,-3271.00
2022-12-18T05:50:51.102Z,-3271.00
2022-12-18T05:53:20.546Z,-3270.90
2022-12-18T05:55:48.044Z,-3270.80
2022-12-18T05:58:15.806Z,-3270.80
2022-12-18T06:00:45.001Z,-3270.80
2022-12-18T06:03:13.418Z,-3270.70
2022-12-18T06:05:45.391Z,-3270.70
2022-12-18T06:08:13.637Z,-3270.70
2022-12-18T06:10:41.267Z,-3270.60
2022-12-18T06:13:08.580Z,-3270.60
2022-12-18T06:15:38.185Z,-3270.50
2022-12-18T06:18:05.114Z,-3270.40
2022-12-18T06:20:33.623Z,-3270.50
2022-12-18T06:23:01.128Z,-3270.50
2022-12-18T06:25:27.908Z,-3270.50
2022-12-18T06:27:54.748Z,-3270.40
2022-12-18T06:30:21.756Z,-3270.30
2022-12-18T06:32:53.198Z,-3270.20
2022-12-18T06:35:23.919Z,-3270.20
2022-12-18T06:37:50.742Z,-3270.20
2022-12-18T06:40:17.672Z,-3270.20
2022-12-18T06:42:44.429Z,-3270.20
2022-12-18T06:45:12.317Z,-3270.10
2022-12-18T06:47:39.110Z,-3270.00
2022-12-18T06:50:06.566Z,-3269.90
2022-12-18T06:52:34.470Z,-3269.90
2022-12-18T06:55:01.426Z,-3269.90
2022-12-18T06:57:29.124Z,-3269.80
2022-12-18T06:59:55.856Z,-3269.80
2022-12-18T07:02:22.613Z,-3269.70
2022-12-18T07:04:49.399Z,-3269.80
2022-12-18T07:07:16.186Z,-3270.00
2022-12-18T07:09:42.946Z,-3270.00
2022-12-18T07:12:09.668Z,-3270.00
2022-12-18T07:14:36.415Z,-3270.00
2022-12-18T07:17:03.220Z,-3270.00
2022-12-18T07:19:30.617Z,-3270.00
2022-12-18T07:21:57.973Z,-3269.90
2022-12-18T07:24:24.697Z,-3270.00
2022-12-18T07:26:51.466Z,-3270.10
2022-12-18T07:29:18.265Z,-3270.10
2022-12-18T07:31:45.519Z,-3270.20
2022-12-18T07:34:16.199Z,-3270.20
2022-12-18T07:36:43.765Z,-3270.30
2022-12-18T07:39:12.313Z,-3270.30
2022-12-18T07:41:45.192Z,-3270.30
2022-12-18T07:44:13.681Z,-3270.40
2022-12-18T07:46:40.610Z,-3270.50
2022-12-18T07:49:07.686Z,-3270.50
2022-12-18T07:51:34.422Z,-3270.60
2022-12-18T07:54:01.153Z,-3270.60
2022-12-18T07:56:29.604Z,-3270.60
2022-12-18T07:58:57.549Z,-3270.50
2022-12-18T08:01:25.253Z,-3270.60
2022-12-18T08:03:52.651Z,-3270.60
2022-12-18T08:06:22.386Z,-3270.50
2022-12-18T08:08:55.422Z,-3270.50
2022-12-18T08:11:23.325Z,-3270.60
2022-12-18T08:13:50.073Z,-3270.50
2022-12-18T08:16:16.997Z,-3270.50
2022-12-18T08:18:43.804Z,-3270.60
2022-12-18T08:21:11.275Z,-3270.70
2022-12-18T08:23:42.734Z,-3270.80
2022-12-18T08:26:12.028Z,-3270.90
2022-12-18T08:28:39.332Z,-3271.00
2022-12-18T08:31:06.385Z,-3271.00
2022-12-18T08:33:34.382Z,-3271.00
2022-12-18T08:36:02.057Z,-3270.90
2022-12-18T08:38:29.398Z,-3270.90
2022-12-18T08:41:10.953Z,-3270.80
2022-12-18T08:43:56.374Z,-3270.70
2022-12-18T08:46:25.533Z,-3270.70
2022-12-18T08:48:54.054Z,-3270.90
2022-12-18T08:51:21.019Z,-3270.90
2022-12-18T08:53:48.294Z,-3270.90
2022-12-18T08:56:15.490Z,-3271.00
2022-12-18T08:58:42.706Z,-3270.70
2022-12-18T09:01:11.300Z,-3270.60
2022-12-18T09:03:38.799Z,-3270.50
2022-12-18T09:06:06.360Z,-3270.70
2022-12-18T09:08:35.894Z,-3270.70
2022-12-18T09:11:02.637Z,-3270.60
2022-12-18T09:13:29.755Z,-3270.70
2022-12-18T09:15:56.926Z,-3270.50
2022-12-18T09:18:25.266Z,-3270.30
2022-12-18T09:20:53.732Z,-3270.10
2022-12-18T09:23:21.495Z,-3270.50
2022-12-18T09:25:48.817Z,-3270.70
2022-12-18T09:28:18.202Z,-3270.20
2022-12-18T09:30:47.317Z,-3270.20
2022-12-18T09:33:14.721Z,-3270.30
2022-12-18T09:35:43.755Z,-3270.50
2022-12-18T09:38:14.513Z,-3270.70
2022-12-18T09:40:45.535Z,-3270.90
2022-12-18T09:43:21.581Z,-3271.20
2022-12-18T09:45:53.550Z,-3271.00
2022-12-18T09:48:26.197Z,-3270.80
2022-12-18T09:51:00.628Z,-3271.00
2022-12-18T09:53:31.134Z,-3271.10
2022-12-18T09:56:01.501Z,-3271.00
2022-12-18T09:58:34.299Z,-3271.40
2022-12-18T10:01:01.063Z,-3271.50
2022-12-18T10:03:28.213Z,-3271.10
2022-12-18T10:06:14.447Z,-3271.20
2022-12-18T10:08:58.799Z,-3271.40
2022-12-18T10:11:25.469Z,-3271.50
2022-12-18T10:14:07.759Z,-3271.30
2022-12-18T10:16:37.463Z,-3271.40
2022-12-18T10:19:38.303Z,-3271.70
2022-12-18T10:22:26.970Z,-3271.80
2022-12-18T10:25:02.995Z,-3272.00
2022-12-18T10:27:30.702Z,-3272.20
2022-12-18T10:29:58.355Z,-3272.60
2022-12-18T10:32:30.780Z,-3272.70
2022-12-18T10:35:02.000Z,-3272.70
2022-12-18T10:37:30.533Z,-3272.80
2022-12-18T10:40:21.541Z,-3272.80
2022-12-18T10:43:05.375Z,-3272.60
2022-12-18T10:45:32.197Z,-3272.50
2022-12-18T10:48:01.429Z,-3272.50
2022-12-18T10:51:09.829Z,-3272.40
2022-12-18T10:53:28.332Z,-3272.60
2022-12-18T10:55:58.725Z,-3272.90
2022-12-18T10:58:30.154Z,-3272.90
2022-12-18T11:01:17.760Z,-3272.80
2022-12-18T11:03:47.731Z,-3272.70
2022-12-18T11:06:17.427Z,-3273.10
2022-12-18T11:08:57.720Z,-3273.20
2022-12-18T11:11:25.861Z,-3273.40
2022-12-18T11:14:13.556Z,-3273.50
2022-12-18T11:17:23.727Z,-3273.60
2022-12-18T11:19:40.861Z,-3273.60
2022-12-18T11:22:41.122Z,-3273.70
2022-12-18T11:25:36.008Z,-3273.70
2022-12-18T11:28:27.671Z,-3274.30
2022-12-18T11:31:18.284Z,-3274.20
2022-12-18T11:36:50.495Z,-3274.20
2022-12-18T11:39:31.480Z,-3274.20
2022-12-18T11:42:10.719Z,-3274.40
2022-12-18T11:45:09.521Z,-3275.00
2022-12-18T11:48:02.367Z,-3274.80
2022-12-18T11:50:40.374Z,-3275.60
2022-12-18T11:53:12.110Z,-3275.70
2022-12-18T11:55:53.453Z,-3275.80
2022-12-18T11:58:42.085Z,-3275.20
2022-12-18T12:01:17.834Z,-3275.00
2022-12-18T12:04:02.775Z,-3275.70
2022-12-18T12:06:53.254Z,-3276.50
2022-12-18T12:09:36.031Z,-3276.70
2022-12-18T12:12:25.942Z,-3276.70
2022-12-18T12:15:06.755Z,-3276.70
2022-12-18T12:17:45.255Z,0.00
2022-12-18T12:20:26.600Z,0.60
2022-12-18T12:23:39.521Z,1.00
2022-12-18T12:26:14.911Z,1.60
2022-12-18T12:29:01.237Z,1.90
2022-12-18T12:31:56.064Z,1.80
2022-12-18T12:35:07.714Z,1.70
2022-12-18T12:37:50.633Z,1.50
2022-12-18T12:40:50.162Z,1.50
2022-12-18T12:43:26.668Z,1.40
2022-12-18T12:46:15.361Z,2.10
2022-12-18T12:48:53.482Z,2.80
2022-12-18T12:51:27.057Z,2.90
2022-12-18T12:53:57.191Z,2.70
2022-12-18T12:56:28.700Z,2.80
2022-12-18T12:59:00.947Z,2.50
2022-12-18T13:01:46.741Z,2.40
2022-12-18T13:04:22.854Z,2.50
2022-12-18T13:07:01.161Z,2.30
2022-12-18T13:09:32.778Z,1.90
2022-12-18T13:12:29.765Z,1.80
2022-12-18T13:15:23.262Z,1.40
2022-12-18T13:17:50.649Z,1.10
2022-12-18T13:20:17.805Z,0.60
2022-12-18T13:22:47.815Z,0.10
2022-12-18T13:25:34.639Z,-3276.70
2022-12-18T13:28:13.513Z,-3276.70
2022-12-18T13:30:40.181Z,-3276.50
2022-12-18T13:33:15.998Z,-3276.10
2022-12-18T13:35:48.871Z,-3276.30
2022-12-18T13:38:37.271Z,-3276.30
2022-12-18T13:41:16.254Z,-3276.10
2022-12-18T13:44:00.448Z,-3275.90
2022-12-18T13:46:42.990Z,-3275.90
2022-12-18T13:49:23.748Z,-3275.70
2022-12-18T13:51:52.867Z,-3275.60
2022-12-18T13:54:22.074Z,-3275.50
2022-12-18T13:56:49.900Z,-3275.30
2022-12-18T13:59:24.856Z,-3275.10
2022-12-18T14:01:56.275Z,-3274.80
2022-12-18T14:04:35.991Z,-3274.50
2022-12-18T14:07:11.751Z,-3274.40
2022-12-18T14:09:47.151Z,-3274.40
2022-12-18T14:12:55.656Z,-3274.50
2022-12-18T14:15:34.646Z,-3274.40
2022-12-18T14:18:23.405Z,-3274.40
2022-12-18T14:20:53.400Z,-3274.10
2022-12-18T14:23:41.597Z,-3273.70
2022-12-18T14:26:30.670Z,-3273.40
2022-12-18T14:28:59.570Z,-3273.10
2022-12-18T14:31:29.087Z,-3273.00
2022-12-18T14:33:56.321Z,-3272.90
2022-12-18T14:36:25.928Z,-3272.60
2022-12-18T14:38:58.124Z,-3272.40
2022-12-18T14:41:26.354Z,-3272.20
2022-12-18T14:43:55.328Z,-3272.00
2022-12-18T14:46:37.800Z,-3271.90
2022-12-18T14:49:34.938Z,-3271.80
2022-12-18T14:52:07.231Z,-3271.70
2022-12-18T14:54:38.118Z,-3271.50
2022-12-18T14:57:25.776Z,-3271.40
2022-12-18T14:59:52.814Z,-3271.20
2022-12-18T15:02:25.846Z,-3271.20
2022-12-18T15:05:00.938Z,-3271.00
2022-12-18T15:07:28.007Z,-3270.80
2022-12-18T15:10:03.903Z,-3270.80
2022-12-18T15:12:45.786Z,-3270.70
2022-12-18T15:15:34.140Z,-3270.60
2022-12-18T15:18:02.446Z,-3270.40
2022-12-18T15:20:33.791Z,-3270.50
2022-12-18T15:23:00.522Z,-3270.50
2022-12-18T15:25:38.759Z,-3270.40
2022-12-18T15:28:20.385Z,-3270.30
2022-12-18T15:31:04.825Z,-3270.30
2022-12-18T15:33:34.942Z,-3270.20
2022-12-18T15:36:10.143Z,-3270.20
2022-12-18T15:38:37.056Z,-3270.20
2022-12-18T15:41:04.330Z,-3270.10
2022-12-18T15:43:37.792Z,-3270.10
2022-12-18T15:46:16.930Z,-3270.00
2022-12-18T15:48:48.510Z,-3270.10
2022-12-18T15:51:21.456Z,-3270.00
2022-12-18T15:53:50.882Z,-3269.90
2022-12-18T15:56:36.775Z,-3269.70
2022-12-18T15:59:05.905Z,-3269.70
2022-12-18T16:01:32.902Z,-3269.60
2022-12-18T16:04:00.513Z,-3269.40
2022-12-18T16:06:30.508Z,-3269.50
2022-12-18T16:09:03.238Z,-3269.40
2022-12-18T16:11:44.006Z,-3269.20
2022-12-18T16:14:29.547Z,-3269.10
2022-12-18T16:17:00.920Z,-3269.10
2022-12-18T16:19:28.853Z,-3269.00
2022-12-18T16:21:57.809Z,-3269.00
2022-12-18T16:24:26.734Z,-3269.00
2022-12-18T16:26:54.501Z,-3268.80
2022-12-18T16:29:28.108Z,-3268.80
2022-12-18T16:31:56.234Z,-3268.80
2022-12-18T16:34:29.313Z,-3268.70
2022-12-18T16:37:05.518Z,-3268.70
2022-12-18T16:39:34.867Z,-3268.60
2022-12-18T16:42:06.006Z,-3268.60
2022-12-18T16:44:34.516Z,-3268.60
2022-12-18T16:47:02.931Z,-3268.60
2022-12-18T16:49:31.252Z,-3268.50
2022-12-18T16:51:58.126Z,-3268.40
2022-12-18T16:54:25.361Z,-3268.40
2022-12-18T16:56:52.606Z,-3268.40
2022-12-18T16:59:19.497Z,-3268.40
2022-12-18T17:01:47.631Z,-3268.30
2022-12-18T17:04:15.322Z,-3268.30
2022-12-18T17:06:44.896Z,-3268.40
2022-12-18T17:09:16.368Z,-3268.30
2022-12-18T17:11:43.802Z,-3268.30
2022-12-18T17:14:14.929Z,-3268.30
2022-12-18T17:16:42.116Z,-3268.20
2022-12-18T17:19:16.658Z,-3268.20
2022-12-18T17:21:45.665Z,-3268.20
2022-12-18T17:24:12.456Z,-3268.10
2022-12-18T17:26:39.342Z,-3268.00
2022-12-18T17:29:06.635Z,-3268.10
2022-12-18T17:31:34.265Z,-3268.00
2022-12-18T17:34:04.234Z,-3267.90
2022-12-18T17:36:32.251Z,-3267.90
2022-12-18T17:39:01.340Z,-3267.80
2022-12-18T17:41:29.637Z,-3267.80
2022-12-18T17:43:58.835Z,-3267.80
2022-12-18T17:46:27.353Z,-3267.80
2022-12-18T17:49:01.197Z,-3267.90
2022-12-18T17:51:28.622Z,-3267.90
2022-12-18T17:53:55.494Z,-3267.80
2022-12-18T17:56:24.584Z,-3267.80
2022-12-18T17:58:52.156Z,-3267.80
2022-12-18T18:01:21.661Z,-3267.90
2022-12-18T18:03:51.552Z,-3267.80
2022-12-18T18:06:20.922Z,-3267.80
2022-12-18T18:08:48.054Z,-3267.70
2022-12-18T18:11:35.510Z,-3267.70
2022-12-18T18:14:07.492Z,-3267.70
2022-12-18T18:16:46.038Z,-3267.70
2022-12-18T18:19:16.544Z,-3267.70
2022-12-18T18:21:45.641Z,-3267.70
2022-12-18T18:24:16.034Z,-3267.70
2022-12-18T18:26:43.036Z,-3267.70
2022-12-18T18:29:14.243Z,-3267.70
2022-12-18T18:31:41.911Z,-3267.70
2022-12-18T18:34:14.125Z,-3267.60
2022-12-18T18:36:40.890Z,-3267.50
2022-12-18T18:39:09.008Z,-3267.30
2022-12-18T18:41:37.217Z,-3267.40
2022-12-18T18:44:04.589Z,-3267.30
2022-12-18T18:46:31.412Z,-3267.20
2022-12-18T18:48:58.209Z,-3267.20
2022-12-18T18:51:26.188Z,-3267.20
2022-12-18T18:53:55.580Z,-3267.40
2022-12-18T18:59:11.316Z,-3267.40
2022-12-18T19:01:38.188Z,-3267.30
2022-12-18T19:04:05.140Z,-3267.40
2022-12-18T19:06:32.078Z,-3267.40
2022-12-18T19:09:04.259Z,-3267.50
2022-12-18T19:11:49.667Z,-3267.50
2022-12-18T19:14:17.966Z,-3267.50
2022-12-18T19:16:45.538Z,-3267.50
2022-12-18T19:19:13.346Z,-3267.50
2022-12-18T19:21:41.405Z,-3267.50
2022-12-18T19:24:09.887Z,-3267.50
2022-12-18T19:26:40.335Z,-3267.50
2022-12-18T19:29:08.980Z,-3267.40
2022-12-18T19:31:37.358Z,-3267.40
2022-12-18T19:34:08.865Z,-3267.40
2022-12-18T19:36:37.673Z,-3267.40
2022-12-18T19:39:13.572Z,-3267.50
2022-12-18T19:41:41.165Z,-3267.40
2022-12-18T19:44:11.803Z,-3267.40
2022-12-18T19:46:41.638Z,-3267.40
2022-12-18T19:49:10.760Z,-3267.40
2022-12-18T19:51:38.331Z,-3267.40
2022-12-18T19:54:05.364Z,-3267.30
2022-12-18T19:56:34.275Z,-3267.30
2022-12-18T19:59:02.669Z,-3267.30
2022-12-18T20:01:30.787Z,-3267.20
2022-12-18T20:03:58.401Z,-3267.20
2022-12-18T20:06:37.976Z,-3267.20
2022-12-18T20:09:06.629Z,-3267.20
2022-12-18T20:11:38.857Z,-3267.20
2022-12-18T20:14:10.119Z,-3267.10
2022-12-18T20:16:36.984Z,-3267.00
2022-12-18T20:19:04.272Z,-3267.00
2022-12-18T20:21:31.613Z,-3267.10
2022-12-18T20:23:59.936Z,-3267.20
2022-12-18T20:26:26.819Z,-3267.40
2022-12-18T20:28:54.771Z,-3267.60
2022-12-18T20:31:22.488Z,-3267.70
2022-12-18T20:33:50.944Z,-3267.80
2022-12-18T20:36:22.480Z,-3267.90
2022-12-18T20:38:55.295Z,-3267.90
2022-12-18T20:41:24.259Z,-3267.90
2022-12-18T20:43:50.999Z,-3268.00
2022-12-18T20:46:18.004Z,-3267.90
2022-12-18T20:48:45.096Z,-3268.00
2022-12-18T20:51:15.237Z,-3268.00
2022-12-18T20:53:42.714Z,-3268.10
2022-12-18T20:56:21.297Z,-3268.20
2022-12-18T20:58:49.712Z,-3268.20
2022-12-18T21:01:19.273Z,-3268.20
2022-12-18T21:03:47.112Z,-3268.30
2022-12-18T21:06:16.020Z,-3268.30
2022-12-18T21:08:43.175Z,-3268.40
2022-12-18T21:11:32.738Z,-3268.50
2022-12-18T21:14:00.081Z,-3268.60
2022-12-18T21:16:26.958Z,-3268.70
2022-12-18T21:18:54.526Z,-3268.80
2022-12-18T21:21:26.559Z,-3268.90
2022-12-18T21:23:54.519Z,-3268.90
2022-12-18T21:26:24.790Z,-3268.80
2022-12-18T21:28:56.630Z,-3268.90
2022-12-18T21:31:25.428Z,-3268.90
2022-12-18T21:33:53.139Z,-3268.90
2022-12-18T21:36:30.211Z,-3268.90
2022-12-18T21:38:57.685Z,-3268.90
2022-12-18T21:41:44.823Z,-3268.90
2022-12-18T21:44:14.227Z,-3269.00
2022-12-18T21:46:44.137Z,-3269.00
2022-12-18T21:49:14.528Z,-3269.00
2022-12-18T21:51:41.453Z,-3269.00
2022-12-18T21:54:08.207Z,-3269.00
2022-12-18T21:56:53.088Z,-3269.00
2022-12-18T21:59:25.483Z,-3269.10
2022-12-18T22:01:53.919Z,-3269.10
2022-12-18T22:04:21.887Z,-3269.10
2022-12-18T22:06:50.068Z,-3269.10
2022-12-18T22:09:19.271Z,-3269.20
2022-12-18T22:11:46.683Z,-3269.20
2022-12-18T22:14:15.241Z,-3269.20
2022-12-18T22:16:43.144Z,-3269.20
2022-12-18T22:19:11.905Z,-3269.20
2022-12-18T22:21:41.170Z,-3269.30
2022-12-18T22:24:15.408Z,-3269.30
2022-12-18T22:26:43.100Z,-3269.30
2022-12-18T22:29:39.721Z,-3269.30
2022-12-18T22:32:09.101Z,-3269.30
2022-12-18T22:34:38.607Z,-3269.30
2022-12-18T22:37:05.949Z,-3269.30
2022-12-18T22:39:32.751Z,-3269.40
2022-12-18T22:41:59.597Z,-3269.30
2022-12-18T22:44:26.499Z,-3269.40
2022-12-18T22:47:05.710Z,-3269.50
2022-12-18T22:49:34.854Z,-3269.40
2022-12-18T22:52:03.361Z,-3269.40
2022-12-18T22:54:30.132Z,-3269.40
2022-12-18T22:56:57.251Z,-3269.40
2022-12-18T22:59:24.477Z,-3269.40
2022-12-18T23:01:54.189Z,-3269.40
2022-12-18T23:04:35.873Z,-3269.30
2022-12-18T23:07:05.323Z,-3269.40
2022-12-18T23:09:32.483Z,-3269.40
2022-12-18T23:11:59.290Z,-3269.40
2022-12-18T23:14:26.283Z,-3269.50
2022-12-18T23:16:53.352Z,-3269.40
2022-12-18T23:19:20.926Z,-3269.40
2022-12-18T23:21:50.447Z,-3269.50
2022-12-18T23:24:17.224Z,-3269.50
2022-12-18T23:26:44.046Z,-3269.50
2022-12-18T23:29:10.782Z,-3269.50
2022-12-18T23:31:39.461Z,-3269.60
2022-12-18T23:34:07.008Z,-3269.60
2022-12-18T23:36:40.295Z,-3269.60
2022-12-18T23:39:24.344Z,-3269.60
2022-12-18T23:41:59.519Z,-3269.60
2022-12-18T23:44:26.532Z,-3269.70
2022-12-18T23:46:53.477Z,-3269.70
2022-12-18T23:49:20.635Z,-3269.70
2022-12-18T23:51:47.406Z,-3269.70
2022-12-18T23:54:14.434Z,-3269.70
2022-12-18T23:56:41.239Z,-3269.70
2022-12-18T23:59:08.004Z,-3269.70
